Capitol Logistics 246




MMMX
Benito Juárez International Airport
Mexico City, MX
KLAX
Los Angeles International Airport
Los Angeles, US

Activity Log

Date Flight Route Aircraft Duration
11/12/2021 CPX246 PPE J93 ASUTA AMMOR OLAAA1 B763 3h 43m
11/11/2021 CPX246 PPE J93 ASUTA AMMOR OLAAA1 B752 3h 50m
09/28/2021 CPX246 ATURO1A ATURO UT133 OTAKA UT134 ZCL UT10 PPE J93 JLI B752 3h 54m
12/02/2019 CPX246 PPE J93 ASUTA AMMOR OLAAA1 B763 3h 49m
09/01/2019 CPX246 PTJ5A PTJ J13 AGU UQ104 AVRIL UT25 AXASA ASUTA AMMOR OLAAA1 B763 3h 20m
02/14/2019 CPX246 PPE J93 ASUTA AMMOR OLAAA1 B763 3h 41m

Route Details

Aircraft Information
Group: Equipment Varies
Types: A30F,A31F,B738,B744,B752,B762,B763,MD11
Route Data
Demand: H
Distance: 1351nm
Duration: 3h 45m
Recm'd Route: PPE J93 ASUTA AMMOR OLAAA1
Origin Wx: MMMX 270549Z 36010KT 10SM SCT080 BKN220 19/05 A3037 NOSIG RMK SLP087 52014 916 8/038 HZY
Dest. Wx: KLAX 270553Z 24004KT 10SM SCT015 BKN020 17/12 A3003 RMK AO2 SLP165 T01670117 10189 20161 51010
Notes:

Financial History
Total Freight: 541,560lbs
Average Load: 90,260lbs/flt
Fuel Used: 204,248lbs
Avg. Fuel Used: 34,041lbs/flt
Fuel Expense: $124,363
Avg. Fuel Expense: $20,727
Avg. Fuel Cost: $0.58/lbs
Total Gross Income: $942,861
Pilot Pay: $1,364
Total Expenses: $121,701
Total Revenue: $692,746
Average Revenue: $157,143.47